createdAt,value
2018-01-07T00:01:21.389Z,3.10
2018-01-07T00:03:48.066Z,3.10
2018-01-07T00:06:14.761Z,3.10
2018-01-07T00:08:41.460Z,3.10
2018-01-07T00:11:08.162Z,3.10
2018-01-07T00:13:34.851Z,3.00
2018-01-07T00:16:01.531Z,3.00
2018-01-07T00:18:28.209Z,3.00
2018-01-07T00:20:54.898Z,2.90
2018-01-07T00:23:22.366Z,3.00
2018-01-07T00:25:49.785Z,2.90
2018-01-07T00:28:16.489Z,2.90
2018-01-07T00:30:43.189Z,2.90
2018-01-07T00:33:09.877Z,2.80
2018-01-07T00:35:36.562Z,2.80
2018-01-07T00:38:03.246Z,2.70
2018-01-07T00:40:29.902Z,2.70
2018-01-07T00:42:56.597Z,2.70
2018-01-07T00:45:23.376Z,2.70
2018-01-07T00:47:50.053Z,2.60
2018-01-07T00:50:16.785Z,2.60
2018-01-07T00:52:43.426Z,2.60
2018-01-07T00:55:11.066Z,2.60
2018-01-07T00:57:38.499Z,2.60
2018-01-07T01:00:05.175Z,2.60
2018-01-07T01:02:32.572Z,2.50
2018-01-07T01:04:59.234Z,2.50
2018-01-07T01:07:25.901Z,2.60
2018-01-07T01:09:52.541Z,2.60
2018-01-07T01:12:19.205Z,2.60
2018-01-07T01:14:46.591Z,2.60
2018-01-07T01:17:13.281Z,2.50
2018-01-07T01:19:39.969Z,2.50
2018-01-07T01:22:06.630Z,2.50
2018-01-07T01:24:33.297Z,2.50
2018-01-07T01:26:59.937Z,2.50
2018-01-07T01:29:27.525Z,2.50
2018-01-07T01:31:54.278Z,2.40
2018-01-07T01:34:21.758Z,2.40
2018-01-07T01:36:48.419Z,2.40
2018-01-07T01:39:15.077Z,2.40
2018-01-07T01:41:41.750Z,2.50
2018-01-07T01:44:08.434Z,2.50
2018-01-07T01:46:35.095Z,2.50
2018-01-07T01:49:20.025Z,2.50
2018-01-07T01:51:47.430Z,2.40
2018-01-07T01:54:15.063Z,2.40
2018-01-07T01:56:41.746Z,2.40
2018-01-07T01:59:09.654Z,2.30
2018-01-07T02:01:37.075Z,2.30
2018-01-07T02:04:03.784Z,2.30
2018-01-07T02:06:30.488Z,2.30
2018-01-07T02:08:57.161Z,2.20
2018-01-07T02:11:24.582Z,2.20
2018-01-07T02:13:51.265Z,2.20
2018-01-07T02:16:18.765Z,2.20
2018-01-07T02:18:45.438Z,2.20
2018-01-07T02:21:12.100Z,2.20
2018-01-07T02:23:39.591Z,2.30
2018-01-07T02:26:06.287Z,2.20
2018-01-07T02:28:32.998Z,2.20
2018-01-07T02:30:59.667Z,2.20
2018-01-07T02:33:26.394Z,2.20
2018-01-07T02:35:53.058Z,2.20
2018-01-07T02:38:19.744Z,2.20
2018-01-07T02:40:46.456Z,2.20
2018-01-07T02:43:13.086Z,2.20
2018-01-07T02:45:39.751Z,2.10
2018-01-07T02:48:07.234Z,2.00
2018-01-07T02:50:34.181Z,2.00
2018-01-07T02:53:00.852Z,2.00
2018-01-07T02:55:27.538Z,2.00
2018-01-07T02:57:54.955Z,2.00
2018-01-07T03:00:21.622Z,1.90
2018-01-07T03:02:49.198Z,1.90
2018-01-07T03:05:15.880Z,1.90
2018-01-07T03:07:42.560Z,1.90
2018-01-07T03:10:09.249Z,1.90
2018-01-07T03:12:36.628Z,1.80
2018-01-07T03:15:03.306Z,1.80
2018-01-07T03:17:29.972Z,1.80
2018-01-07T03:19:56.626Z,1.70
2018-01-07T03:22:24.062Z,1.80
2018-01-07T03:24:50.755Z,1.80
2018-01-07T03:27:17.410Z,1.80
2018-01-07T03:29:44.054Z,1.80
2018-01-07T03:32:10.778Z,1.80
2018-01-07T03:34:37.479Z,1.80
2018-01-07T03:37:04.153Z,1.80
2018-01-07T03:39:31.563Z,1.70
2018-01-07T03:41:58.996Z,1.70
2018-01-07T03:44:25.660Z,1.70
2018-01-07T03:46:52.371Z,1.70
2018-01-07T03:49:19.039Z,1.60
2018-01-07T03:51:46.611Z,1.60
2018-01-07T03:54:13.296Z,1.60
2018-01-07T03:56:40.709Z,1.60
2018-01-07T03:59:07.380Z,1.60
2018-01-07T04:01:34.038Z,1.50
2018-01-07T04:04:00.725Z,1.50
2018-01-07T04:06:27.388Z,1.50
2018-01-07T04:08:55.363Z,1.50
2018-01-07T04:11:22.098Z,1.50
2018-01-07T04:13:48.864Z,1.40
2018-01-07T04:16:15.530Z,1.40
2018-01-07T04:18:42.248Z,1.50
2018-01-07T04:21:08.904Z,1.40
2018-01-07T04:23:36.479Z,1.40
2018-01-07T04:26:03.157Z,1.40
2018-01-07T04:28:29.821Z,1.40
2018-01-07T04:30:57.318Z,1.40
2018-01-07T04:33:24.041Z,1.40
2018-01-07T04:35:51.960Z,1.40
2018-01-07T04:38:19.376Z,1.40
2018-01-07T04:40:46.850Z,1.50
2018-01-07T04:43:13.520Z,1.40
2018-01-07T04:45:41.351Z,1.50
2018-01-07T04:48:08.057Z,1.40
2018-01-07T04:50:34.689Z,1.50
2018-01-07T04:53:01.641Z,1.40
2018-01-07T04:55:28.299Z,1.40
2018-01-07T04:57:55.765Z,1.40
2018-01-07T05:00:22.425Z,1.40
2018-01-07T05:02:49.099Z,1.40
2018-01-07T05:05:15.769Z,1.40
2018-01-07T05:07:43.155Z,1.40
2018-01-07T05:10:09.825Z,1.40
2018-01-07T05:12:36.474Z,1.40
2018-01-07T05:15:03.138Z,1.40
2018-01-07T05:17:30.572Z,1.40
2018-01-07T05:19:57.215Z,1.40
2018-01-07T05:22:23.855Z,1.40
2018-01-07T05:24:50.544Z,1.40
2018-01-07T05:27:17.179Z,1.40
2018-01-07T05:29:44.596Z,1.40
2018-01-07T05:32:11.286Z,1.40
2018-01-07T05:34:38.691Z,1.30
2018-01-07T05:37:05.351Z,1.30
2018-01-07T05:39:32.014Z,1.30
2018-01-07T05:41:59.404Z,1.30
2018-01-07T05:44:26.039Z,1.30
2018-01-07T05:46:52.695Z,1.30
2018-01-07T05:49:19.377Z,1.30
2018-01-07T05:51:46.029Z,1.30
2018-01-07T05:54:12.703Z,1.20
2018-01-07T05:56:39.373Z,1.30
2018-01-07T05:59:06.022Z,1.30
2018-01-07T06:01:32.697Z,1.30
2018-01-07T06:03:59.381Z,1.30
2018-01-07T06:06:26.087Z,1.30
2018-01-07T06:08:52.788Z,1.30
2018-01-07T06:11:19.564Z,1.30
2018-01-07T06:13:46.249Z,1.30
2018-01-07T06:16:12.975Z,1.30
2018-01-07T06:18:40.450Z,1.30
2018-01-07T06:21:07.125Z,1.30
2018-01-07T06:23:33.790Z,1.40
2018-01-07T06:26:00.500Z,1.40
2018-01-07T06:28:27.148Z,1.40
2018-01-07T06:30:53.805Z,1.40
2018-01-07T06:33:20.483Z,1.40
2018-01-07T06:35:47.868Z,1.50
2018-01-07T06:38:15.287Z,1.50
2018-01-07T06:40:42.710Z,1.50
2018-01-07T06:43:09.400Z,1.50
2018-01-07T06:45:36.079Z,1.50
2018-01-07T06:48:02.736Z,1.50
2018-01-07T06:50:29.396Z,1.60
2018-01-07T06:52:56.103Z,1.60
2018-01-07T06:55:22.767Z,1.60
2018-01-07T06:57:49.406Z,1.60
2018-01-07T07:00:16.119Z,1.70
2018-01-07T07:02:43.550Z,2.40
2018-01-07T07:05:10.225Z,2.40
2018-01-07T07:07:37.642Z,4.80
2018-01-07T07:10:04.293Z,4.80
2018-01-07T07:12:31.752Z,7.10
2018-01-07T07:14:59.245Z,7.10
2018-01-07T07:17:26.643Z,9.60
2018-01-07T07:19:53.290Z,9.60
2018-01-07T07:22:19.967Z,10.50
2018-01-07T07:24:46.631Z,11.30
2018-01-07T07:27:14.061Z,12.80
2018-01-07T07:29:40.718Z,12.70
2018-01-07T07:32:07.394Z,13.50
2018-01-07T07:34:34.086Z,14.20
2018-01-07T07:37:00.762Z,14.90
2018-01-07T07:39:28.269Z,15.50
2018-01-07T07:41:54.913Z,15.50
2018-01-07T07:44:21.662Z,15.70
2018-01-07T07:46:48.319Z,17.00
2018-01-07T07:49:14.988Z,18.30
2018-01-07T07:51:41.642Z,19.60
2018-01-07T07:54:09.057Z,22.00
2018-01-07T07:56:35.729Z,21.90
2018-01-07T07:59:02.480Z,21.80
2018-01-07T08:01:29.161Z,22.70
2018-01-07T08:03:55.851Z,23.70
2018-01-07T08:06:23.127Z,24.10
2018-01-07T08:08:50.585Z,25.20
2018-01-07T08:11:18.973Z,25.60
2018-01-07T08:13:46.404Z,25.80
2018-01-07T08:16:13.078Z,25.80
2018-01-07T08:18:40.515Z,26.10
2018-01-07T08:21:07.219Z,26.10
2018-01-07T08:23:33.919Z,26.90
2018-01-07T08:26:01.305Z,27.00
2018-01-07T08:28:27.996Z,27.00
2018-01-07T08:30:55.433Z,28.10
2018-01-07T08:33:22.184Z,28.00
2018-01-07T08:35:48.866Z,28.40
2018-01-07T08:38:15.843Z,28.60
2018-01-07T08:40:42.566Z,29.00
2018-01-07T08:43:09.995Z,28.10
2018-01-07T08:45:36.669Z,28.10
2018-01-07T08:48:04.190Z,26.80
2018-01-07T08:50:30.868Z,26.80
2018-01-07T08:52:58.301Z,26.20
2018-01-07T08:55:24.945Z,26.10
2018-01-07T08:57:51.624Z,27.30
2018-01-07T09:00:19.054Z,28.20
2018-01-07T09:02:45.753Z,28.20
2018-01-07T09:05:12.469Z,28.70
2018-01-07T09:07:39.865Z,28.80
2018-01-07T09:10:06.538Z,28.80
2018-01-07T09:12:33.317Z,29.40
2018-01-07T09:15:00.746Z,28.40
2018-01-07T09:17:27.387Z,28.40
2018-01-07T09:19:54.225Z,28.70
2018-01-07T09:22:20.895Z,28.60
2018-01-07T09:24:47.557Z,28.50
2018-01-07T09:27:14.934Z,28.40
2018-01-07T09:29:41.683Z,28.40
2018-01-07T09:32:08.425Z,28.40
2018-01-07T09:34:35.136Z,28.70
2018-01-07T09:37:02.831Z,29.30
2018-01-07T09:39:29.586Z,29.30
2018-01-07T09:41:56.528Z,29.70
2018-01-07T09:44:23.264Z,29.10
2018-01-07T09:46:49.968Z,29.90
2018-01-07T09:49:16.622Z,30.20
2018-01-07T09:51:43.424Z,30.20
2018-01-07T09:54:11.037Z,30.80
2018-01-07T09:56:37.756Z,30.30
2018-01-07T09:59:04.443Z,29.70
2018-01-07T10:01:31.920Z,29.30
2018-01-07T10:03:58.595Z,29.30
2018-01-07T10:06:25.600Z,28.40
2018-01-07T10:08:53.052Z,29.80
2018-01-07T10:11:19.765Z,29.80
2018-01-07T10:13:46.469Z,30.00
2018-01-07T10:16:13.126Z,28.20
2018-01-07T10:18:39.836Z,27.70
2018-01-07T10:21:06.515Z,25.80
2018-01-07T10:23:33.181Z,25.40
2018-01-07T10:25:59.858Z,25.40
2018-01-07T10:28:27.274Z,25.10
2018-01-07T10:30:54.018Z,25.00
2018-01-07T10:33:20.683Z,24.00
2018-01-07T10:35:47.369Z,23.00
2018-01-07T10:38:14.042Z,22.10
2018-01-07T10:40:40.681Z,22.00
2018-01-07T10:43:08.137Z,22.50
2018-01-07T10:45:34.804Z,23.50
2018-01-07T10:48:01.454Z,24.20
2018-01-07T10:50:28.126Z,23.60
2018-01-07T10:52:55.504Z,22.10
2018-01-07T10:55:22.258Z,22.10
2018-01-07T10:57:48.949Z,21.20
2018-01-07T11:00:15.622Z,20.90
2018-01-07T11:02:42.350Z,20.60
2018-01-07T11:05:09.807Z,20.40
2018-01-07T11:07:37.306Z,20.00
2018-01-07T11:10:04.071Z,20.00
2018-01-07T11:12:30.749Z,19.80
2018-01-07T11:14:58.177Z,21.10
2018-01-07T11:17:24.884Z,21.10
2018-01-07T11:19:51.531Z,22.00
2018-01-07T11:22:18.200Z,22.50
2018-01-07T11:24:44.845Z,22.70
2018-01-07T11:27:11.542Z,22.80
2018-01-07T11:29:38.981Z,22.60
2018-01-07T11:32:05.617Z,22.60
2018-01-07T11:34:32.317Z,22.50
2018-01-07T11:36:59.714Z,20.50
2018-01-07T11:39:26.481Z,20.50
2018-01-07T11:41:53.898Z,20.50
2018-01-07T11:44:22.351Z,20.00
2018-01-07T11:46:48.999Z,20.00
2018-01-07T11:49:15.647Z,20.00
2018-01-07T11:51:42.410Z,20.00
2018-01-07T11:54:09.060Z,19.70
2018-01-07T11:56:35.693Z,19.10
2018-01-07T11:59:02.396Z,18.50
2018-01-07T12:01:29.786Z,18.40
2018-01-07T12:03:56.439Z,18.40
2018-01-07T12:06:23.162Z,18.70
2018-01-07T12:08:49.842Z,19.00
2018-01-07T12:11:16.501Z,19.60
2018-01-07T12:13:43.183Z,19.40
2018-01-07T12:16:09.829Z,19.90
2018-01-07T12:18:36.506Z,19.90
2018-01-07T12:21:03.222Z,19.70
2018-01-07T12:23:29.873Z,19.10
2018-01-07T12:25:56.543Z,18.30
2018-01-07T12:28:23.240Z,17.70
2018-01-07T12:30:49.962Z,17.20
2018-01-07T12:33:17.392Z,17.00
2018-01-07T12:35:44.048Z,16.90
2018-01-07T12:38:10.839Z,16.60
2018-01-07T12:40:37.533Z,16.40
2018-01-07T12:43:05.035Z,16.50
2018-01-07T12:45:31.832Z,16.40
2018-01-07T12:47:58.558Z,16.80
2018-01-07T12:50:25.277Z,16.50
2018-01-07T12:52:51.941Z,16.80
2018-01-07T12:55:18.590Z,16.80
2018-01-07T12:57:45.319Z,15.80
2018-01-07T13:00:12.051Z,15.20
2018-01-07T13:02:38.697Z,14.90
2018-01-07T13:05:05.347Z,14.90
2018-01-07T13:07:40.069Z,14.60
2018-01-07T13:10:06.737Z,14.30
2018-01-07T13:12:33.408Z,14.20
2018-01-07T13:15:00.090Z,14.40
2018-01-07T13:17:26.762Z,14.10
2018-01-07T13:19:53.694Z,13.80
2018-01-07T13:22:20.381Z,13.20
2018-01-07T13:24:47.010Z,12.70
2018-01-07T13:27:14.427Z,12.40
2018-01-07T13:29:41.116Z,12.40
2018-01-07T13:32:07.755Z,12.20
2018-01-07T13:34:34.457Z,12.10
2018-01-07T13:37:01.126Z,11.90
2018-01-07T13:39:27.797Z,11.50
2018-01-07T13:41:54.581Z,11.40
2018-01-07T13:44:21.237Z,11.30
2018-01-07T13:46:47.946Z,11.20
2018-01-07T13:49:15.345Z,10.90
2018-01-07T13:51:42.068Z,10.90
2018-01-07T13:54:08.757Z,10.70
2018-01-07T13:56:35.410Z,10.50
2018-01-07T13:59:02.087Z,10.40
2018-01-07T14:01:28.782Z,10.40
2018-01-07T14:03:55.408Z,10.30
2018-01-07T14:06:22.622Z,10.30
2018-01-07T14:08:50.027Z,10.40
2018-01-07T14:11:16.708Z,10.40
2018-01-07T14:13:44.153Z,10.20
2018-01-07T14:16:10.866Z,10.10
2018-01-07T14:18:38.326Z,9.90
2018-01-07T14:21:05.832Z,9.90
2018-01-07T14:23:33.429Z,9.60
2018-01-07T14:26:00.099Z,9.60
2018-01-07T14:28:26.749Z,9.50
2018-01-07T14:30:53.430Z,9.40
2018-01-07T14:33:20.834Z,9.20
2018-01-07T14:35:47.537Z,9.10
2018-01-07T14:38:14.994Z,8.90
2018-01-07T14:40:42.603Z,8.90
2018-01-07T14:43:09.293Z,8.90
2018-01-07T14:45:36.002Z,8.80
2018-01-07T14:48:02.905Z,8.70
2018-01-07T14:50:30.322Z,8.60
2018-01-07T15:02:56.574Z,10.40
2018-01-07T15:05:23.961Z,9.40
2018-01-07T15:07:50.659Z,9.40
2018-01-07T15:10:18.972Z,8.60
2018-01-07T15:12:46.366Z,8.30
2018-01-07T15:15:13.012Z,8.20
2018-01-07T15:17:39.661Z,8.10
2018-01-07T15:20:06.369Z,7.90
2018-01-07T15:22:33.040Z,7.70
2018-01-07T15:24:59.729Z,7.50
2018-01-07T15:27:27.222Z,7.20
2018-01-07T15:29:53.873Z,7.20
2018-01-07T15:32:20.557Z,7.10
2018-01-07T15:34:47.272Z,7.00
2018-01-07T15:37:13.959Z,6.80
2018-01-07T15:39:41.414Z,6.60
2018-01-07T15:42:08.865Z,6.50
2018-01-07T15:44:35.585Z,6.50
2018-01-07T15:47:02.281Z,6.40
2018-01-07T15:49:29.047Z,6.20
2018-01-07T15:51:55.756Z,6.10
2018-01-07T15:54:23.221Z,5.90
2018-01-07T15:56:50.654Z,5.70
2018-01-07T15:59:17.302Z,5.70
2018-01-07T16:01:43.988Z,5.60
2018-01-07T16:04:10.678Z,5.50
2018-01-07T16:06:37.349Z,5.40
2018-01-07T16:09:04.860Z,5.40
2018-01-07T16:11:31.563Z,5.40
2018-01-07T16:13:58.976Z,5.40
2018-01-07T16:16:25.678Z,5.40
2018-01-07T16:18:52.391Z,5.40
2018-01-07T16:21:19.073Z,5.30
2018-01-07T16:23:45.787Z,5.30
2018-01-07T16:26:13.174Z,5.20
2018-01-07T16:28:40.089Z,5.20
2018-01-07T16:31:06.892Z,5.10
2018-01-07T16:33:33.502Z,5.10
2018-01-07T16:36:00.154Z,5.00
2018-01-07T16:38:26.834Z,5.00
2018-01-07T16:40:53.492Z,5.00
2018-01-07T16:43:20.206Z,5.00
2018-01-07T16:45:46.954Z,5.00
2018-01-07T16:48:13.639Z,5.00
2018-01-07T16:50:41.060Z,4.90
2018-01-07T16:53:07.749Z,4.90
2018-01-07T16:55:36.143Z,4.80
2018-01-07T16:58:02.791Z,4.80
2018-01-07T17:00:29.514Z,4.80
2018-01-07T17:02:56.950Z,4.60
2018-01-07T17:05:23.618Z,4.60
2018-01-07T17:07:51.046Z,4.60
2018-01-07T17:10:17.739Z,4.60
2018-01-07T17:12:44.430Z,4.50
2018-01-07T17:15:11.088Z,4.50
2018-01-07T17:17:37.875Z,4.50
2018-01-07T17:20:05.584Z,4.40
2018-01-07T17:22:32.262Z,4.40
2018-01-07T17:24:59.732Z,4.40
2018-01-07T17:27:27.258Z,4.40
2018-01-07T17:29:53.934Z,4.30
2018-01-07T18:53:04.917Z,3.90
2018-01-07T18:55:31.594Z,3.90
2018-01-07T18:57:58.299Z,3.90
2018-01-07T19:00:25.528Z,4.00
2018-01-07T19:02:52.270Z,4.10
2018-01-07T19:05:19.693Z,4.20
2018-01-07T19:07:46.415Z,4.10
2018-01-07T19:10:13.092Z,4.20
2018-01-07T19:12:39.788Z,4.20
2018-01-07T19:15:06.462Z,4.20
2018-01-07T19:17:33.867Z,4.30
2018-01-07T19:20:00.580Z,4.30
2018-01-07T19:22:27.296Z,4.30
2018-01-07T19:24:53.966Z,4.40
2018-01-07T19:27:20.730Z,4.40
2018-01-07T19:29:47.487Z,4.50
2018-01-07T19:32:14.275Z,4.50
2018-01-07T19:34:41.044Z,4.50
2018-01-07T19:37:07.822Z,4.50
2018-01-07T19:39:34.486Z,4.50
2018-01-07T19:42:01.393Z,4.50
2018-01-07T19:44:28.134Z,4.60
2018-01-07T19:46:54.829Z,4.60
2018-01-07T19:49:21.756Z,4.60
2018-01-07T19:51:48.729Z,4.70
2018-01-07T19:54:16.505Z,4.80
2018-01-07T19:56:43.517Z,4.80
2018-01-07T19:59:11.487Z,4.90
2018-01-07T20:01:39.073Z,4.90
2018-01-07T20:04:05.873Z,4.90
2018-01-07T20:06:32.603Z,5.00
2018-01-07T20:08:59.552Z,5.00
2018-01-07T20:11:26.399Z,5.00
2018-01-07T20:13:53.072Z,5.10
2018-01-07T20:16:21.418Z,5.20
2018-01-07T20:18:48.213Z,5.20
2018-01-07T20:21:14.889Z,5.20
2018-01-07T20:23:41.877Z,5.20
2018-01-07T20:26:08.647Z,5.20
2018-01-07T20:28:36.065Z,5.20
2018-01-07T20:31:02.736Z,5.20
2018-01-07T20:33:30.488Z,5.30
2018-01-07T20:35:57.493Z,5.30
2018-01-07T20:38:24.253Z,5.30
2018-01-07T20:40:50.992Z,5.30
2018-01-07T20:43:17.696Z,5.30
2018-01-07T20:45:45.182Z,5.40
2018-01-07T20:48:11.886Z,5.30
2018-01-07T20:50:38.594Z,5.30
2018-01-07T20:53:05.333Z,5.20
2018-01-07T20:55:32.058Z,5.20
2018-01-07T20:57:58.754Z,5.20
2018-01-07T21:00:25.455Z,5.00
2018-01-07T21:02:52.185Z,5.00
2018-01-07T21:05:19.657Z,5.00
2018-01-07T21:07:46.369Z,4.90
2018-01-07T21:10:13.826Z,5.00
2018-01-07T21:12:41.257Z,5.10
2018-01-07T21:15:07.966Z,5.00
2018-01-07T21:17:34.646Z,5.10
2018-01-07T21:20:01.338Z,5.10
2018-01-07T21:22:28.044Z,5.10
2018-01-07T21:24:54.734Z,5.10
2018-01-07T21:27:21.433Z,5.20
2018-01-07T21:29:48.086Z,5.20
2018-01-07T21:32:15.482Z,5.30
2018-01-07T21:34:42.366Z,5.30
2018-01-07T21:37:09.029Z,5.30
2018-01-07T21:39:36.836Z,5.30
2018-01-07T21:42:03.656Z,5.20
2018-01-07T21:44:31.048Z,5.20
2018-01-07T21:46:57.742Z,5.20
2018-01-07T21:49:24.417Z,5.20
2018-01-07T21:51:51.127Z,5.30
2018-01-07T21:54:17.801Z,5.30
2018-01-07T21:56:44.498Z,5.30
2018-01-07T21:59:11.165Z,5.30
2018-01-07T22:01:56.847Z,5.30
2018-01-07T22:04:41.722Z,5.30
2018-01-07T22:07:09.191Z,5.30
2018-01-07T22:09:36.584Z,5.40
2018-01-07T22:12:03.258Z,5.30
2018-01-07T22:14:29.941Z,5.40
2018-01-07T22:16:57.372Z,5.50
2018-01-07T22:19:24.928Z,5.40
2018-01-07T22:21:51.615Z,5.40
2018-01-07T22:24:19.009Z,5.50
2018-01-07T22:26:45.683Z,5.50
2018-01-07T22:29:12.358Z,5.50
2018-01-07T22:31:40.279Z,5.50
2018-01-07T22:34:07.752Z,5.50
2018-01-07T22:36:34.470Z,5.50
2018-01-07T22:39:01.142Z,5.60
2018-01-07T22:41:27.837Z,5.60
2018-01-07T22:43:54.534Z,5.70
2018-01-07T22:46:21.242Z,5.60
2018-01-07T22:48:47.934Z,5.60
2018-01-07T22:51:15.963Z,5.50
2018-01-07T22:53:42.602Z,5.50
2018-01-07T22:56:09.262Z,5.50
2018-01-07T22:58:35.946Z,5.40
2018-01-07T23:01:03.674Z,5.40
2018-01-07T23:03:30.333Z,5.40
2018-01-07T23:05:57.052Z,5.40
2018-01-07T23:08:23.727Z,5.40
2018-01-07T23:10:50.409Z,5.30
2018-01-07T23:13:17.108Z,5.30
2018-01-07T23:15:43.736Z,5.30
2018-01-07T23:18:10.374Z,5.30
2018-01-07T23:20:37.066Z,5.40
2018-01-07T23:23:04.458Z,5.30
2018-01-07T23:25:31.124Z,5.30
2018-01-07T23:27:57.783Z,5.40
2018-01-07T23:30:24.417Z,5.40
2018-01-07T23:32:51.077Z,5.40
2018-01-07T23:35:18.521Z,5.40
2018-01-07T23:37:45.190Z,5.40
2018-01-07T23:40:12.639Z,5.40
2018-01-07T23:42:40.075Z,5.30
2018-01-07T23:45:06.732Z,5.30
2018-01-07T23:47:33.414Z,5.30
2018-01-07T23:50:00.080Z,5.30
2018-01-07T23:52:26.749Z,5.30
2018-01-07T23:54:53.445Z,5.30
2018-01-07T23:57:20.100Z,5.30
2018-01-07T23:59:46.743Z,5.30
